images/hfc/images/print_logo.png
Drucken
[Quelle: ADDS]
METAR
EDDW 271550Z AUTO 30018G29KT 9000 -SHRA SCT038 FEW///CB 11/08 Q1017 RESHRA TEMPO 28020G35KT SHRA SCT025TCU =
TAF
EDDW 271100Z 2712/2812 28020G35KT 9999 SCT035 PROB30 TEMPO 2712/2809 SHRA SCT025CB BECMG 2718/2720 28013KT BECMG 2805/2808 30020G30KT =
BCMT / ECET: 02:16 / 20:28 UTC (EDDW 2022-05-27)

printlogo=no